Stones Mill, Virginia
Current Conditions -  °F | °C
As of 9:35 PM on Tuesday 21 Oct 2014 (Local Time) from KMKJ Reporting Station
Overcast Overcast  
Wind Chill: 43°   Ceiling: 3300
Heat Index: 46°   Visibility: 10mi
Dew Point: 37°   Wind: 7mph
Humidity: 71%   Direction: 290°WNW
Pressure: 30.07"   Gusts: 22mph
Location:  36.9511°N, 81.112°W
Report Text: KMKJ 220135Z AUTO 29006G19KT 240V320 10SM SCT025 BKN033 OVC043 08/03 A3007 RMK AO2 T00800030
Loading
Personal Weather Stations






























Interactive Weather Map
Tropical Storm Tracking
New forecast layout! Learn more

10-Day Weather Forecast

Advertisements
Track Severe Weather on mobile